Terminal Aerodrome Forecast
Issued by NWS

Home | Current Version | Previous Version | Text Only | Print | Product List | Glossary On
Versions: 1 2 3 4 5 6 7 8 9 10 11 12 13 14 15 16 17 18 19 20 21 22 23 24 25 26 27 28 29 30
000
FTUS44 KBMX 262320
TAFEET
TAF
KEET 262320Z 2700/2724 09007KT P6SM VCSH BKN015 OVC025
     FM270400 12006KT P6SM VCSH OVC008
     FM270700 11005KT 6SM BR OVC007 PROB30 2712/2716 3SM -SHRA
      OVC002
     FM271600 13006KT P6SM OVC015 PROB30 2716/2718 4SM SHRA
     FM271800 14005KT P6SM SHRA BKN015 PROB30 2718/2721 4SM TSRA
      OVC009CB
     FM272100 VRB04KT P6SM SHRA BKN025 PROB30 2723/2724 4SM TSRA
      OVC025CB=

USA.gov is the U.S. government's official web portal to all federal, state and local government web resources and services.